aviador You're here:

KLSF Decoded Metar

FORT BENNING in GA, USA
Report Time2018-05-26 14:56:00
UTC Time2018-05-26 15:51:33
Flight Rules vfr VFR
WindCalm
Visibility9999 m
Phenomena:N/A
Clouds:Few 022 Hf
Expected CloudBase > 2,000 ft AGL from Temp-Dew spread
CeilingNone
Temp27°C (ISA +12)
Dew Point22°C (74% RH)
Heat Index29.2°C
QNH1015 hPa
Density Alt1,952 ft
Elevation233 ft
Report Wrong Elevation
Raw Report
KLSF 261456Z AUTO 00000KT 10SM FEW022 27/22 A2996 RMK AO2 SLP148
T02660224 50005=

Extra information for KLSF:More info

Metar Taf Metar & Taf Last 4 Metars F.Rules Stats Wind Profile Meteogram Temp Stats Airport Information Weather charts Add Link Nearby VenuesMetar ALERT Operation Metar Decoded Social comments

AIRNAV info for KLSF